Time;durP1;ratioP1;P1;durP2;ratioP2;P2;SDS_P1;SDS_P2;PMS_P1;PMS_P2;Temp;Humidity;BMP_temperature;BMP_pressure;BME280_temperature;BME280_humidity;BME280_pressure;Samples;Min_cycle;Max_cycle;Signal;HPM_P1;HPM_P2
2023/03/24 00:02:16;;;;;;;6.20;4.20;;;;;;;13.69;53.57;96200.11;109295;1267;22657;-80
2023/03/24 00:04:52;;;;;;;7.00;3.50;;;;;;;13.63;53.69;96201.95;109329;1272;22511;-80
2023/03/24 00:07:23;;;;;;;6.50;3.90;;;;;;;13.55;53.86;96198.07;109239;1270;42823;-80
2023/03/24 00:09:56;;;;;;;7.70;3.80;;;;;;;13.50;53.98;96199.33;109274;1270;22521;-80
2023/03/24 00:12:27;;;;;;;9.30;4.20;;;;;;;13.47;54.04;96205.58;109342;1267;25363;-80
2023/03/24 00:15:01;;;;;;;4.80;3.20;;;;;;;13.47;54.13;96209.19;109274;1272;23759;-80
2023/03/24 00:17:34;;;;;;;7.50;4.30;;;;;;;13.48;54.15;96209.30;109286;1272;66042;-80
2023/03/24 00:20:12;;;;;;;5.00;3.80;;;;;;;13.47;54.20;96205.61;109373;1272;22614;-80
2023/03/24 00:22:48;;;;;;;5.70;4.10;;;;;;;13.43;54.29;96209.20;109271;1272;22518;-81
2023/03/24 00:25:22;;;;;;;6.20;4.40;;;;;;;13.39;54.35;96200.95;109242;1272;22566;-81
2023/03/24 00:27:54;;;;;;;7.80;4.20;;;;;;;13.39;54.46;96204.20;109329;1272;79835;-80
2023/03/24 00:30:25;;;;;;;6.70;3.90;;;;;;;13.35;54.59;96202.19;109313;1272;23862;-80
2023/03/24 00:33:00;;;;;;;5.40;3.40;;;;;;;13.33;54.61;96204.38;109331;1272;25291;-80
2023/03/24 00:35:31;;;;;;;4.60;3.60;;;;;;;13.34;54.64;96198.59;109284;1272;23782;-80
2023/03/24 00:38:03;;;;;;;5.40;3.50;;;;;;;13.33;54.66;96195.23;109248;1272;47809;-80
2023/03/24 00:40:34;;;;;;;5.20;4.00;;;;;;;13.32;54.69;96191.94;109299;1267;22561;-80
2023/03/24 00:43:09;;;;;;;4.80;3.60;;;;;;;13.32;54.70;96187.42;109294;1272;22554;-80
2023/03/24 00:45:44;;;;;;;6.00;3.60;;;;;;;13.31;54.67;96185.58;109198;1273;22543;-80
2023/03/24 00:48:18;;;;;;;5.40;3.30;;;;;;;13.37;54.65;96181.44;109170;1273;22519;-80
2023/03/24 00:50:51;;;;;;;4.60;3.40;;;;;;;13.39;54.73;96184.44;109281;1273;22568;-81
2023/03/24 00:53:24;;;;;;;4.50;3.60;;;;;;;13.39;54.64;96180.24;109240;1273;22556;-80
2023/03/24 00:55:56;;;;;;;4.80;2.90;;;;;;;13.41;54.60;96181.19;109127;1265;33124;-80
2023/03/24 00:58:28;;;;;;;4.80;3.20;;;;;;;13.44;54.50;96175.87;109150;1270;22701;-80
2023/03/24 01:01:00;;;;;;;5.10;3.30;;;;;;;13.46;54.55;96176.34;109126;1273;23204;-80
2023/03/24 01:03:33;;;;;;;5.00;3.20;;;;;;;13.47;54.48;96175.54;109185;1274;23133;-80
2023/03/24 01:06:06;;;;;;;5.60;3.20;;;;;;;13.58;54.21;96175.30;109156;1264;50410;-80
2023/03/24 01:08:37;;;;;;;4.20;3.10;;;;;;;13.64;54.18;96181.45;109265;1273;22498;-80
2023/03/24 01:11:09;;;;;;;4.90;3.40;;;;;;;13.63;54.27;96172.96;109307;1267;22534;-80
2023/03/24 01:13:41;;;;;;;4.80;2.90;;;;;;;13.63;54.24;96174.24;109285;1270;24042;-80
2023/03/24 01:16:12;;;;;;;5.80;3.20;;;;;;;13.58;54.16;96175.80;109210;1267;79336;-80
2023/03/24 01:18:44;;;;;;;4.80;3.00;;;;;;;13.61;54.03;96168.16;109308;1272;22581;-80
2023/03/24 01:21:15;;;;;;;5.50;3.10;;;;;;;13.67;54.00;96163.29;109272;1270;22521;-80
2023/03/24 01:23:46;;;;;;;5.00;3.30;;;;;;;13.59;54.28;96158.01;109316;1272;22541;-80
2023/03/24 01:26:17;;;;;;;5.80;3.50;;;;;;;13.47;54.47;96158.21;109258;1267;46218;-80
2023/03/24 01:28:49;;;;;;;5.60;3.60;;;;;;;13.41;54.56;96155.72;109305;1272;25262;-80
2023/03/24 01:31:20;;;;;;;6.30;4.10;;;;;;;13.35;54.75;96157.40;109286;1267;23365;-80
2023/03/24 01:33:51;;;;;;;4.00;3.40;;;;;;;13.35;54.74;96158.36;109354;1269;22569;-80
2023/03/24 01:36:22;;;;;;;4.70;3.80;;;;;;;13.35;54.92;96158.09;109228;1272;73310;-80
2023/03/24 01:38:53;;;;;;;5.50;3.50;;;;;;;13.35;54.83;96156.64;109240;1267;22537;-80
2023/03/24 01:41:24;;;;;;;4.80;3.70;;;;;;;13.36;54.92;96158.72;109266;1272;23094;-80
2023/03/24 01:43:56;;;;;;;7.40;3.50;;;;;;;13.40;54.92;96156.88;109351;1269;22521;-80
2023/03/24 01:46:32;;;;;;;3.70;3.10;;;;;;;13.41;54.93;96150.15;109372;1272;56343;-80
2023/03/24 01:49:06;;;;;;;8.80;3.70;;;;;;;13.40;54.83;96148.89;109351;1272;22560;-80
2023/03/24 01:51:41;;;;;;;4.30;2.90;;;;;;;13.41;54.87;96146.83;109405;1272;22566;-80
2023/03/24 01:54:16;;;;;;;4.30;3.10;;;;;;;13.48;54.84;96145.09;109413;1272;22520;-80
2023/03/24 01:56:53;;;;;;;7.20;3.20;;;;;;;13.48;54.64;96142.35;109397;1264;52591;-80
2023/03/24 01:59:27;;;;;;;4.30;3.20;;;;;;;13.58;54.45;96141.99;109320;1272;22486;-81
2023/03/24 02:02:02;;;;;;;6.40;3.50;;;;;;;13.67;54.24;96139.83;109388;1266;22519;-80
2023/03/24 02:04:38;;;;;;;6.80;3.50;;;;;;;13.73;54.04;96137.72;109412;1267;22873;-81
2023/03/24 02:07:16;;;;;;;4.60;3.30;;;;;;;13.74;54.02;96132.98;108008;1271;1851224;-81
2023/03/24 02:09:50;;;;;;;4.50;3.20;;;;;;;13.70;54.04;96130.07;109442;1251;22710;-81
2023/03/24 02:12:21;;;;;;;4.90;3.60;;;;;;;13.64;54.14;96131.60;109392;1269;22515;-81
2023/03/24 02:14:53;;;;;;;3.90;3.40;;;;;;;13.59;54.28;96122.03;109384;1257;23051;-81
2023/03/24 02:17:48;;;;;;;7.40;3.50;;;;;;;13.54;54.40;96128.41;109306;1266;61092;-80
2023/03/24 02:20:53;;;;;;;4.40;3.70;;;;;;;13.51;54.40;96127.81;109359;1272;22474;-81
2023/03/24 02:24:01;;;;;;;4.20;3.30;;;;;;;13.54;54.42;96124.06;109399;1269;22455;-81
2023/03/24 02:26:47;;;;;;;5.80;3.60;;;;;;;13.53;54.53;96125.16;109339;1268;44089;-80
2023/03/24 02:29:45;;;;;;;6.50;3.50;;;;;;;13.37;54.74;96124.68;109347;1272;22764;-81
2023/03/24 02:32:40;;;;;;;5.50;3.50;;;;;;;13.14;55.19;96123.93;109385;1264;24173;-81
2023/03/24 02:35:31;;;;;;;5.90;3.70;;;;;;;12.96;55.52;96122.89;109275;1272;22560;-81
2023/03/24 02:38:29;;;;;;;5.20;3.70;;;;;;;12.86;55.83;96121.48;109361;1266;38216;-82
2023/03/24 02:41:03;;;;;;;6.90;3.80;;;;;;;12.78;56.16;96120.94;109288;1269;22560;-81
2023/03/24 02:43:45;;;;;;;5.60;3.20;;;;;;;12.73;56.33;96120.48;109426;1272;22541;-81
2023/03/24 02:46:23;;;;;;;5.10;3.20;;;;;;;12.71;56.36;96119.63;109323;1271;66544;-81
2023/03/24 02:49:19;;;;;;;4.50;3.40;;;;;;;12.67;56.57;96119.99;109374;1271;22582;-81
2023/03/24 02:51:58;;;;;;;6.00;3.80;;;;;;;12.62;56.77;96118.93;109384;1272;22613;-81
2023/03/24 02:54:37;;;;;;;4.10;3.30;;;;;;;12.58;56.92;96122.88;109346;1271;22515;-81
2023/03/24 02:57:15;;;;;;;4.50;3.60;;;;;;;12.50;57.03;96118.63;109423;1271;56828;-81
2023/03/24 02:59:55;;;;;;;5.60;3.40;;;;;;;12.44;57.23;96119.09;109435;1271;22487;-80
2023/03/24 03:02:32;;;;;;;4.60;3.60;;;;;;;12.39;57.43;96115.08;109365;1272;22515;-81
2023/03/24 03:05:12;;;;;;;4.40;3.50;;;;;;;12.34;57.53;96114.06;109381;1264;22888;-80
2023/03/24 03:07:46;;;;;;;5.40;3.60;;;;;;;12.30;57.59;96111.66;109363;1266;50495;-81
2023/03/24 03:10:22;;;;;;;4.70;3.80;;;;;;;12.24;57.65;96109.19;109360;1272;22601;-80
2023/03/24 03:12:57;;;;;;;4.80;3.40;;;;;;;12.16;58.08;96111.55;109386;1271;22514;-81
2023/03/24 03:15:32;;;;;;;6.90;3.90;;;;;;;12.07;58.45;96109.77;109370;1266;22515;-80
2023/03/24 03:18:13;;;;;;;4.60;3.40;;;;;;;12.01;58.76;96104.70;109297;1272;118568;-82
2023/03/24 03:20:49;;;;;;;5.10;3.80;;;;;;;11.99;59.11;96104.87;109375;1272;25405;-82
2023/03/24 03:23:28;;;;;;;4.40;3.40;;;;;;;12.00;59.10;96109.41;109321;1272;22483;-82
2023/03/24 03:26:04;;;;;;;5.10;3.90;;;;;;;12.04;59.20;96105.21;109349;1266;48279;-82
2023/03/24 03:28:40;;;;;;;6.40;3.80;;;;;;;12.07;59.23;96105.61;109350;1269;22709;-82
2023/03/24 03:31:15;;;;;;;7.50;3.80;;;;;;;12.10;59.21;96106.41;109345;1267;22579;-82
2023/03/24 03:33:51;;;;;;;6.50;3.80;;;;;;;12.10;59.17;96105.92;109374;1272;22564;-82
2023/03/24 03:36:26;;;;;;;4.70;3.10;;;;;;;12.12;59.13;96104.20;109293;1272;47196;-81
2023/03/24 03:39:08;;;;;;;6.30;3.90;;;;;;;12.12;59.19;96103.58;109400;1272;24177;-82
2023/03/24 03:41:40;;;;;;;5.60;3.40;;;;;;;12.12;59.27;96101.92;109385;1266;24178;-81
2023/03/24 03:44:14;;;;;;;6.30;3.90;;;;;;;12.10;59.15;96102.42;109343;1264;24379;-81
2023/03/24 03:46:45;;;;;;;5.40;3.60;;;;;;;12.09;59.23;96105.63;109383;1266;59601;-81
2023/03/24 03:49:16;;;;;;;5.10;4.00;;;;;;;12.10;59.23;96100.66;109397;1267;23869;-81
2023/03/24 03:51:50;;;;;;;5.10;3.30;;;;;;;12.10;59.26;96099.28;109371;1272;24246;-81
2023/03/24 03:54:23;;;;;;;4.70;3.70;;;;;;;12.11;59.37;96098.70;109345;1266;22555;-81
2023/03/24 03:56:56;;;;;;;5.60;3.40;;;;;;;12.14;59.43;96093.59;109294;1267;73460;-81
2023/03/24 03:59:32;;;;;;;5.00;3.20;;;;;;;12.19;59.40;96097.02;108695;1260;867277;-81
2023/03/24 04:02:25;;;;;;;6.10;3.90;;;;;;;12.27;59.27;96096.38;109402;1265;23220;-81
2023/03/24 04:05:12;;;;;;;6.70;3.60;;;;;;;12.32;59.19;96092.03;109364;1269;22599;-81
2023/03/24 04:08:03;;;;;;;5.20;4.10;;;;;;;12.34;59.15;96088.39;109315;1269;68539;-82
2023/03/24 04:10:52;;;;;;;5.40;3.90;;;;;;;12.35;59.06;96089.36;109362;1250;22572;-81
2023/03/24 04:13:32;;;;;;;5.00;3.40;;;;;;;12.37;59.03;96082.02;109401;1250;22567;-82
2023/03/24 04:16:07;;;;;;;;;;;;;;;12.39;59.02;96086.02;109346;1265;37288;-81
2023/03/24 04:18:52;;;;;;;7.60;3.60;;;;;;;12.43;58.92;96085.67;109322;1264;24252;-81
2023/03/24 04:21:53;;;;;;;5.50;4.10;;;;;;;12.48;58.75;96081.83;109347;1272;22544;-81
2023/03/24 04:24:37;;;;;;;6.00;4.00;;;;;;;12.49;58.77;96080.36;109356;1266;24088;-81
2023/03/24 04:27:16;;;;;;;4.80;3.50;;;;;;;12.46;58.94;96080.51;109275;1272;36554;-81
2023/03/24 04:29:55;;;;;;;4.70;3.60;;;;;;;12.42;59.01;96079.73;109347;1266;22532;-81
2023/03/24 04:32:40;;;;;;;4.00;3.20;;;;;;;12.41;59.06;96078.20;109338;1272;22507;-81
2023/03/24 04:35:25;;;;;;;5.50;3.90;;;;;;;12.41;59.17;96082.86;109327;1272;22544;-81
2023/03/24 04:38:02;;;;;;;4.10;3.50;;;;;;;12.45;59.17;96081.05;109298;1267;49487;-81
2023/03/24 04:40:40;;;;;;;4.60;3.60;;;;;;;12.49;59.16;96077.98;109305;1272;22563;-80
2023/03/24 04:43:16;;;;;;;3.80;3.40;;;;;;;12.52;59.08;96077.05;109329;1266;23222;-80
2023/03/24 04:45:51;;;;;;;5.20;3.50;;;;;;;12.55;59.02;96080.14;109276;1272;49702;-80
2023/03/24 04:48:23;;;;;;;4.20;3.70;;;;;;;12.60;58.90;96083.47;109369;1270;22567;-80
2023/03/24 04:50:59;;;;;;;5.80;3.40;;;;;;;12.63;58.79;96086.42;109337;1272;22538;-81
2023/03/24 04:53:31;;;;;;;4.00;3.40;;;;;;;12.65;58.76;96086.67;109361;1272;22632;-80
2023/03/24 04:56:30;;;;;;;6.10;3.90;;;;;;;12.63;58.80;96086.45;109316;1266;31454;-81
2023/03/24 04:59:03;;;;;;;6.70;3.70;;;;;;;12.60;58.70;96085.54;109335;1263;22451;-81
2023/03/24 05:01:36;;;;;;;4.80;3.40;;;;;;;12.60;58.75;96091.91;109328;1272;22518;-81
2023/03/24 05:04:08;;;;;;;4.70;3.90;;;;;;;12.62;58.86;96092.66;109346;1271;22512;-81
2023/03/24 05:06:39;;;;;;;6.60;4.00;;;;;;;12.67;58.69;96093.25;109344;1264;63901;-82
2023/03/24 05:09:10;;;;;;;5.70;4.10;;;;;;;12.71;58.66;96094.02;109385;1271;24931;-81
2023/03/24 05:11:41;;;;;;;4.90;3.80;;;;;;;12.72;58.80;96099.70;109397;1266;22864;-81
2023/03/24 05:14:13;;;;;;;6.60;4.10;;;;;;;12.73;58.92;96100.48;109368;1269;25975;-81
2023/03/24 05:16:44;;;;;;;6.30;4.70;;;;;;;12.73;58.98;96105.52;109322;1272;57312;-81
2023/03/24 05:19:16;;;;;;;8.70;4.60;;;;;;;12.71;59.12;96112.33;109333;1271;23765;-81
2023/03/24 05:21:47;;;;;;;7.30;4.80;;;;;;;12.67;59.45;96112.96;109377;1264;22514;-81
2023/03/24 05:24:18;;;;;;;7.90;5.10;;;;;;;12.64;59.60;96116.75;109379;1271;22567;-82
2023/03/24 05:26:50;;;;;;;6.00;4.70;;;;;;;12.64;59.69;96119.46;109235;1272;32810;-82
2023/03/24 05:29:21;;;;;;;7.00;4.80;;;;;;;12.62;60.18;96119.61;109334;1266;23514;-81
2023/03/24 05:31:52;;;;;;;6.10;4.50;;;;;;;12.59;60.18;96118.38;109352;1271;25452;-82
2023/03/24 05:34:24;;;;;;;5.50;4.40;;;;;;;12.60;60.40;96121.23;109353;1267;22469;-82
2023/03/24 05:36:56;;;;;;;6.50;4.20;;;;;;;12.58;60.53;96123.23;109240;1272;76084;-81
2023/03/24 05:39:28;;;;;;;6.10;4.40;;;;;;;12.60;60.72;96122.60;109363;1272;24257;-81
2023/03/24 05:42:00;;;;;;;6.70;5.00;;;;;;;12.61;60.95;96128.66;109330;1272;22687;-81
2023/03/24 05:44:31;;;;;;;7.50;4.80;;;;;;;12.59;60.88;96129.55;109356;1271;25364;-80
2023/03/24 05:47:03;;;;;;;7.80;5.40;;;;;;;12.58;61.05;96127.89;107793;1271;2088467;-79
2023/03/24 05:49:36;;;;;;;8.40;4.90;;;;;;;12.54;61.12;96125.95;109440;1271;25294;-80
2023/03/24 05:52:09;;;;;;;7.60;5.50;;;;;;;12.49;61.24;96123.91;109365;1269;22548;-80
2023/03/24 05:54:40;;;;;;;8.10;5.40;;;;;;;12.46;61.45;96122.77;109367;1266;22500;-80
2023/03/24 05:57:14;;;;;;;6.90;4.80;;;;;;;12.42;61.86;96122.17;109303;1272;59594;-81
2023/03/24 05:59:47;;;;;;;5.90;4.50;;;;;;;12.38;61.96;96125.02;109377;1272;22530;-81
2023/03/24 06:02:20;;;;;;;6.40;4.60;;;;;;;12.37;62.01;96124.08;109373;1270;22542;-80
2023/03/24 06:04:52;;;;;;;7.50;5.00;;;;;;;12.35;62.22;96126.14;109372;1253;22815;-80
2023/03/24 06:07:25;;;;;;;6.10;4.40;;;;;;;12.34;62.35;96124.23;109336;1272;67290;-80
2023/03/24 06:09:57;;;;;;;6.40;4.80;;;;;;;12.32;62.58;96123.09;109368;1272;23251;-80
2023/03/24 06:12:29;;;;;;;5.50;4.50;;;;;;;12.30;62.82;96123.88;109343;1272;23674;-80
2023/03/24 06:15:00;;;;;;;5.80;4.70;;;;;;;12.29;62.88;96124.13;109276;1272;22486;-80
2023/03/24 06:17:32;;;;;;;6.70;4.50;;;;;;;12.28;63.01;96123.72;109359;1266;30744;-80
2023/03/24 06:20:11;;;;;;;5.90;4.20;;;;;;;12.27;63.12;96124.50;109344;1266;22518;-80
2023/03/24 06:22:44;;;;;;;6.30;4.30;;;;;;;12.25;63.31;96124.59;109376;1269;22507;-80
2023/03/24 06:25:19;;;;;;;7.70;5.40;;;;;;;12.24;63.39;96129.38;109359;1272;23231;-80
2023/03/24 06:27:50;;;;;;;7.50;4.90;;;;;;;12.23;63.36;96131.47;109208;1266;35563;-80
2023/03/24 06:30:22;;;;;;;10.30;5.70;;;;;;;12.23;63.55;96132.91;109335;1271;23508;-80
2023/03/24 06:32:55;;;;;;;6.20;4.90;;;;;;;12.25;63.72;96135.29;109300;1263;22559;-80
2023/03/24 06:35:29;;;;;;;8.20;5.10;;;;;;;12.25;63.88;96132.04;109354;1271;22538;-81
2023/03/24 06:38:00;;;;;;;6.60;5.40;;;;;;;12.26;64.02;96136.37;109321;1271;38734;-80
2023/03/24 06:40:33;;;;;;;7.40;5.30;;;;;;;12.26;64.07;96132.21;109384;1271;22641;-80
2023/03/24 06:43:04;;;;;;;7.50;5.00;;;;;;;12.26;64.29;96131.27;109384;1271;24285;-80
2023/03/24 06:45:38;;;;;;;7.30;4.90;;;;;;;12.22;64.88;96133.63;109405;1271;25255;-80
2023/03/24 06:48:09;;;;;;;8.10;4.90;;;;;;;12.18;65.03;96128.35;109362;1267;39778;-80
2023/03/24 06:50:40;;;;;;;6.80;4.80;;;;;;;12.15;65.27;96128.20;109338;1266;24496;-81
2023/03/24 06:53:14;;;;;;;6.20;5.30;;;;;;;12.13;65.49;96129.16;109349;1266;25262;-80
2023/03/24 06:55:48;;;;;;;8.80;5.10;;;;;;;12.10;65.67;96131.86;109326;1267;22514;-80
2023/03/24 06:58:20;;;;;;;6.00;4.60;;;;;;;12.08;66.10;96129.84;109323;1271;22568;-80
2023/03/24 07:00:52;;;;;;;5.90;4.80;;;;;;;12.06;66.40;96128.82;109315;1269;22552;-81
2023/03/24 07:03:23;;;;;;;6.40;4.70;;;;;;;12.03;66.90;96126.23;109261;1272;22514;-81
2023/03/24 07:05:59;;;;;;;7.40;5.70;;;;;;;12.00;67.21;96128.28;109342;1271;22508;-81
2023/03/24 07:08:31;;;;;;;7.00;5.10;;;;;;;11.98;67.35;96129.17;109294;1269;80785;-81
2023/03/24 07:11:03;;;;;;;8.00;5.30;;;;;;;11.97;67.57;96127.91;109330;1266;22452;-80
2023/03/24 07:13:35;;;;;;;6.80;5.00;;;;;;;11.99;67.84;96127.24;109374;1271;25259;-82
2023/03/24 07:16:09;;;;;;;7.20;5.30;;;;;;;12.00;67.86;96125.25;109377;1271;22564;-82
2023/03/24 07:18:41;;;;;;;7.10;5.10;;;;;;;12.01;68.27;96120.48;109206;1271;104351;-81
2023/03/24 07:21:12;;;;;;;6.70;5.40;;;;;;;12.01;68.41;96117.73;109393;1265;22537;-82
2023/03/24 07:23:48;;;;;;;10.40;5.10;;;;;;;12.01;68.78;96115.13;109289;1271;22561;-82
2023/03/24 07:26:23;;;;;;;6.70;5.00;;;;;;;12.02;69.14;96113.30;109286;1269;22573;-82
2023/03/24 07:28:54;;;;;;;7.10;4.70;;;;;;;12.05;69.24;96110.51;107925;1264;1809739;-80
2023/03/24 07:31:28;;;;;;;7.00;5.00;;;;;;;12.10;69.29;96109.17;109209;1266;22508;-81
2023/03/24 07:34:03;;;;;;;10.10;6.80;;;;;;;12.16;69.42;96110.11;109250;1271;22484;-81
2023/03/24 07:36:34;;;;;;;9.70;6.40;;;;;;;12.14;70.33;96108.41;109214;1266;22511;-80
2023/03/24 07:39:08;;;;;;;9.40;6.20;;;;;;;12.10;70.60;96107.58;109211;1269;76051;-80
2023/03/24 07:41:42;;;;;;;8.60;6.60;;;;;;;12.10;71.05;96099.66;109289;1266;24215;-83
2023/03/24 07:44:16;;;;;;;7.80;5.00;;;;;;;12.10;71.26;96097.53;109177;1272;24202;-82
2023/03/24 07:47:16;;;;;;;11.10;7.20;;;;;;;12.11;71.24;96097.00;109244;1265;22492;-84
2023/03/24 07:49:55;;;;;;;12.30;6.80;;;;;;;12.13;71.40;96089.36;109243;1272;22678;-81
2023/03/24 07:52:30;;;;;;;8.50;5.50;;;;;;;12.17;71.59;96089.63;109218;1250;22508;-82
2023/03/24 07:55:06;;;;;;;6.90;5.10;;;;;;;12.20;71.84;96084.81;109216;1266;23416;-83
2023/03/24 07:57:43;;;;;;;7.60;5.20;;;;;;;12.28;71.75;96072.06;109118;1269;72714;-82
2023/03/24 08:00:24;;;;;;;7.90;5.80;;;;;;;12.33;72.24;96073.09;109229;1267;25413;-83
2023/03/24 08:02:55;;;;;;;7.80;4.90;;;;;;;12.48;72.40;96059.28;109196;1266;25434;-82
2023/03/24 08:05:29;;;;;;;6.80;5.50;;;;;;;12.62;72.05;96052.52;109189;1273;23620;-82
2023/03/24 08:08:05;;;;;;;8.30;6.10;;;;;;;12.76;71.98;96050.61;109118;1272;116084;-83
2023/03/24 08:10:36;;;;;;;5.80;4.20;;;;;;;12.91;71.63;96050.66;109197;1272;22588;-83
2023/03/24 08:13:08;;;;;;;8.40;4.70;;;;;;;13.12;71.41;96039.60;109133;1273;25418;-81
2023/03/24 08:15:39;;;;;;;5.90;4.50;;;;;;;13.48;70.12;96034.09;109187;1273;22542;-80
2023/03/24 08:18:11;;;;;;;5.50;4.70;;;;;;;13.78;68.54;96029.06;109196;1272;63181;-81
2023/03/24 08:20:42;;;;;;;5.50;4.50;;;;;;;14.11;68.17;96026.02;109221;1266;22655;-81
2023/03/24 08:23:16;;;;;;;6.30;4.90;;;;;;;14.72;66.57;96022.90;109263;1266;23817;-82
2023/03/24 08:25:59;;;;;;;5.60;4.70;;;;;;;15.32;65.26;96021.51;109261;1265;24328;-80
2023/03/24 08:28:34;;;;;;;6.00;4.10;;;;;;;15.78;63.61;96014.33;109127;1272;94313;-80
2023/03/24 08:31:14;;;;;;;5.50;4.00;;;;;;;15.80;61.37;96013.82;109420;1272;22592;-80
2023/03/24 08:33:56;;;;;;;5.20;3.70;;;;;;;16.00;61.05;96015.68;109335;1272;22484;-80
2023/03/24 08:36:29;;;;;;;5.10;3.50;;;;;;;16.80;60.92;96011.36;109257;1272;22511;-80
2023/03/24 08:39:05;;;;;;;5.20;3.80;;;;;;;17.71;59.33;96012.38;105515;1266;5088686;-81
2023/03/24 08:41:38;;;;;;;5.20;4.30;;;;;;;18.89;57.72;96007.21;109370;1259;23121;-81
2023/03/24 08:44:12;;;;;;;5.00;3.70;;;;;;;19.89;56.01;96003.20;109298;1272;22506;-80
2023/03/24 08:46:46;;;;;;;4.60;3.50;;;;;;;21.18;55.08;95997.84;109300;1250;22518;-80
2023/03/24 08:49:30;;;;;;;4.80;3.50;;;;;;;22.69;52.60;95991.13;107783;1266;2076906;-80
2023/03/24 08:52:09;;;;;;;4.80;3.40;;;;;;;23.28;48.32;95991.05;109325;1269;24497;-80
2023/03/24 08:54:44;;;;;;;4.20;3.70;;;;;;;23.40;45.45;95987.20;109240;1269;23846;-81
2023/03/24 08:57:19;;;;;;;4.80;3.70;;;;;;;23.09;45.43;95983.34;109339;1272;25281;-80
2023/03/24 08:59:50;;;;;;;4.00;3.50;;;;;;;23.42;45.63;95984.90;109243;1263;132057;-82
2023/03/24 09:02:23;;;;;;;5.00;3.90;;;;;;;23.33;42.28;95981.59;109313;1266;25408;-81
2023/03/24 09:04:55;;;;;;;5.20;4.50;;;;;;;22.07;44.11;95979.62;109339;1272;22486;-77
2023/03/24 09:07:26;;;;;;;6.50;4.40;;;;;;;21.42;46.74;95974.68;109316;1269;24241;-78
2023/03/24 09:09:57;;;;;;;5.10;4.30;;;;;;;20.89;46.63;95967.91;109047;1267;127543;-78
2023/03/24 09:12:28;;;;;;;5.30;4.20;;;;;;;20.14;46.36;95960.54;109310;1271;24231;-78
2023/03/24 09:14:59;;;;;;;4.90;3.60;;;;;;;19.72;48.38;95958.63;109374;1271;22449;-78
2023/03/24 09:17:31;;;;;;;5.10;4.10;;;;;;;19.43;48.07;95951.05;109362;1263;22582;-76
2023/03/24 09:20:06;;;;;;;7.30;4.60;;;;;;;19.26;49.45;95949.45;109293;1272;24450;-82
2023/03/24 09:22:38;;;;;;;6.10;4.00;;;;;;;19.41;48.90;95954.77;109402;1272;24166;-81
2023/03/24 09:25:12;;;;;;;5.20;3.80;;;;;;;19.38;48.57;95952.41;109288;1271;25246;-83
2023/03/24 09:27:43;;;;;;;4.90;3.90;;;;;;;19.05;48.37;95944.90;109353;1266;77747;-82
2023/03/24 09:30:18;;;;;;;4.80;3.60;;;;;;;18.96;48.78;95936.94;109290;1266;22546;-81
2023/03/24 09:32:57;;;;;;;8.40;5.50;;;;;;;18.79;48.80;95934.92;109360;1266;26078;-83
2023/03/24 09:35:38;;;;;;;5.40;4.10;;;;;;;18.76;48.72;95930.26;109293;1271;24000;-81
2023/03/24 09:38:11;;;;;;;5.60;3.90;;;;;;;18.61;48.22;95924.66;107975;1265;1763780;-82
2023/03/24 09:40:56;;;;;;;7.00;4.40;;;;;;;18.32;48.53;95926.97;109342;1256;22582;-83
2023/03/24 09:43:38;;;;;;;4.90;3.90;;;;;;;18.22;48.69;95921.50;109295;1272;22545;-82
2023/03/24 09:46:28;;;;;;;5.30;4.20;;;;;;;18.14;48.90;95916.53;109382;1264;22507;-81
2023/03/24 09:49:00;;;;;;;6.10;4.80;;;;;;;18.15;49.23;95923.08;109244;1266;139965;-81
2023/03/24 09:51:34;;;;;;;8.70;6.60;;;;;;;18.34;49.44;95913.45;109321;1264;22518;-82
2023/03/24 09:54:17;;;;;;;10.50;7.50;;;;;;;18.56;49.17;95914.07;109310;1266;23750;-81
2023/03/24 09:56:57;;;;;;;5.80;5.00;;;;;;;18.62;48.63;95907.73;109336;1266;22521;-80
2023/03/24 09:59:38;;;;;;;6.90;4.50;;;;;;;18.52;48.76;95902.94;109231;1253;52250;-81
2023/03/24 10:02:19;;;;;;;8.50;4.80;;;;;;;18.65;49.43;95901.66;109345;1269;25040;-81
2023/03/24 10:04:51;;;;;;;7.30;4.80;;;;;;;18.87;49.11;95898.36;109303;1265;24308;-81
2023/03/24 10:07:34;;;;;;;8.70;5.40;;;;;;;19.03;48.55;95895.11;109279;1272;23576;-81
2023/03/24 10:10:28;;;;;;;5.90;3.90;;;;;;;19.25;48.42;95885.00;109272;1272;22595;-81
2023/03/24 10:13:09;;;;;;;5.90;4.20;;;;;;;19.46;47.31;95883.70;109247;1273;22582;-81
2023/03/24 10:15:48;;;;;;;5.00;3.90;;;;;;;19.44;46.62;95879.73;109251;1269;22649;-81
2023/03/24 10:18:40;;;;;;;5.90;4.20;;;;;;;19.25;46.88;95881.33;109131;1269;100667;-82
2023/03/24 10:21:21;;;;;;;6.00;4.30;;;;;;;19.30;47.33;95873.61;109326;1269;22478;-81
2023/03/24 10:24:05;;;;;;;4.40;3.80;;;;;;;19.28;45.58;95862.80;109281;1266;22496;-79
2023/03/24 10:26:51;;;;;;;5.10;4.20;;;;;;;19.02;46.06;95870.76;109224;1272;22520;-81
2023/03/24 10:29:28;;;;;;;10.70;7.50;;;;;;;19.10;45.74;95864.55;107757;1266;2126959;-80
2023/03/24 10:32:27;;;;;;;5.80;4.00;;;;;;;19.03;46.11;95860.58;109336;1271;24321;-80
2023/03/24 10:35:08;;;;;;;6.10;3.80;;;;;;;19.02;46.29;95858.55;109336;1267;22469;-80
2023/03/24 10:37:38;;;;;;;;;;;;;;;19.07;45.65;95851.76;109190;1269;22493;-79
2023/03/24 10:40:34;;;;;;;5.20;3.10;;;;;;;18.99;45.13;95847.60;109291;1269;22541;-80
2023/03/24 10:43:22;;;;;;;4.30;3.10;;;;;;;18.85;43.65;95843.21;109273;1251;22560;-81
2023/03/24 10:45:56;;;;;;;3.70;3.30;;;;;;;18.70;43.60;95843.09;109284;1266;22549;-79
2023/03/24 10:48:44;;;;;;;5.20;3.60;;;;;;;18.68;43.77;95854.40;109177;1265;95758;-78
2023/03/24 10:51:20;;;;;;;2.90;2.30;;;;;;;18.72;43.29;95847.67;109294;1266;22467;-79
2023/03/24 10:54:10;;;;;;;5.40;3.30;;;;;;;18.61;43.05;95856.08;109263;1266;24228;-78
2023/03/24 10:56:43;;;;;;;4.30;3.20;;;;;;;18.54;43.03;95850.89;109278;1271;25884;-78
2023/03/24 10:59:28;;;;;;;3.60;2.90;;;;;;;18.47;43.30;95855.73;109334;1273;48978;-79
2023/03/24 11:02:18;;;;;;;4.70;2.80;;;;;;;18.41;43.90;95850.52;109193;1266;22645;-78
2023/03/24 11:04:57;;;;;;;5.50;3.50;;;;;;;18.42;44.37;95848.63;109268;1272;24306;-78
2023/03/24 11:07:38;;;;;;;3.60;3.20;;;;;;;18.50;43.95;95843.52;109245;1266;22534;-78
2023/03/24 11:10:17;;;;;;;4.00;3.10;;;;;;;18.55;44.62;95845.86;109186;1248;62035;-79
2023/03/24 11:13:06;;;;;;;3.90;2.60;;;;;;;18.58;43.80;95843.16;109291;1266;22538;-79
2023/03/24 11:15:38;;;;;;;2.90;2.50;;;;;;;18.55;43.58;95849.46;109269;1265;22587;-78
2023/03/24 11:18:17;;;;;;;3.30;3.00;;;;;;;18.57;43.61;95842.70;109227;1266;52572;-78
2023/03/24 11:20:57;;;;;;;4.80;3.00;;;;;;;18.74;43.94;95840.58;109337;1266;22649;-78
2023/03/24 11:23:33;;;;;;;7.30;3.20;;;;;;;18.83;43.04;95833.04;109304;1272;23852;-78
2023/03/24 11:26:14;;;;;;;4.90;2.90;;;;;;;18.89;43.50;95833.77;109268;1269;22473;-78
2023/03/24 11:28:52;;;;;;;4.80;3.10;;;;;;;19.10;43.64;95825.96;109217;1272;70879;-78
2023/03/24 11:31:31;;;;;;;3.80;3.10;;;;;;;19.37;43.35;95825.91;109287;1271;25063;-78
2023/03/24 11:34:08;;;;;;;6.30;2.90;;;;;;;19.56;43.19;95822.60;109280;1266;22205;-78
2023/03/24 11:36:47;;;;;;;5.90;3.40;;;;;;;19.82;42.45;95815.95;109219;1266;22635;-78
2023/03/24 11:39:22;;;;;;;4.90;3.20;;;;;;;19.89;41.25;95816.23;109193;1272;34464;-79
2023/03/24 11:42:06;;;;;;;5.20;3.00;;;;;;;20.00;41.76;95811.80;109249;1271;23570;-79
2023/03/24 11:44:55;;;;;;;3.30;2.90;;;;;;;20.14;41.78;95807.52;109258;1271;22535;-78
2023/03/24 11:47:32;;;;;;;3.90;3.00;;;;;;;20.19;41.44;95803.07;109214;1269;22595;-78
2023/03/24 11:54:03;;;;;;;4.30;3.10;;;;;;;19.90;40.37;95796.35;107993;1281;22763;-78
2023/03/24 11:56:41;;;;;;;4.50;2.90;;;;;;;19.75;40.49;95794.70;108435;1278;22517;-78
2023/03/24 11:59:30;;;;;;;3.60;2.60;;;;;;;19.59;40.23;95799.46;104963;1272;5518267;-78
2023/03/24 12:02:04;;;;;;;;;;;;;;;19.36;40.73;95796.08;109328;1271;22660;-79
2023/03/24 12:04:56;;;;;;;3.60;2.90;;;;;;;19.31;40.75;95794.91;109245;1272;22533;-78
2023/03/24 12:07:58;;;;;;;4.00;2.50;;;;;;;19.35;41.32;95791.91;109249;1268;22880;-79
2023/03/24 12:10:41;;;;;;;3.50;2.70;;;;;;;19.44;41.14;95792.95;109292;1266;22523;-79
2023/03/24 12:13:15;;;;;;;4.10;3.00;;;;;;;19.54;41.13;95791.75;109295;1266;22522;-79